sensor_id;sensor_type;location;lat;lon;timestamp;P1;durP1;ratioP1;P2;durP2;ratioP2
4210;SDS011;2119;48.828;12.396;2023-12-20T00:00:58;24.40;;;15.70;;
4210;SDS011;2119;48.828;12.396;2023-12-20T00:05:58;23.80;;;15.23;;
4210;SDS011;2119;48.828;12.396;2023-12-20T00:10:58;21.60;;;15.15;;
4210;SDS011;2119;48.828;12.396;2023-12-20T00:15:58;20.37;;;15.47;;
4210;SDS011;2119;48.828;12.396;2023-12-20T00:20:58;20.92;;;14.50;;
4210;SDS011;2119;48.828;12.396;2023-12-20T00:25:58;21.37;;;14.67;;
4210;SDS011;2119;48.828;12.396;2023-12-20T00:30:59;21.63;;;15.13;;
4210;SDS011;2119;48.828;12.396;2023-12-20T00:35:59;21.10;;;15.50;;
4210;SDS011;2119;48.828;12.396;2023-12-20T00:40:59;24.65;;;15.25;;
4210;SDS011;2119;48.828;12.396;2023-12-20T00:45:59;22.93;;;15.60;;
4210;SDS011;2119;48.828;12.396;2023-12-20T00:51:00;20.43;;;13.13;;
4210;SDS011;2119;48.828;12.396;2023-12-20T00:56:00;22.30;;;14.85;;
4210;SDS011;2119;48.828;12.396;2023-12-20T01:01:00;26.73;;;14.75;;
4210;SDS011;2119;48.828;12.396;2023-12-20T01:06:00;22.37;;;14.60;;
4210;SDS011;2119;48.828;12.396;2023-12-20T01:11:03;18.50;;;14.67;;
4210;SDS011;2119;48.828;12.396;2023-12-20T01:16:03;19.30;;;14.10;;
4210;SDS011;2119;48.828;12.396;2023-12-20T01:21:04;19.00;;;14.40;;
4210;SDS011;2119;48.828;12.396;2023-12-20T01:26:04;21.83;;;14.70;;
4210;SDS011;2119;48.828;12.396;2023-12-20T01:31:05;22.37;;;15.80;;
4210;SDS011;2119;48.828;12.396;2023-12-20T01:36:06;24.13;;;15.03;;
4210;SDS011;2119;48.828;12.396;2023-12-20T01:41:06;20.67;;;14.15;;
4210;SDS011;2119;48.828;12.396;2023-12-20T01:46:06;22.10;;;14.20;;
4210;SDS011;2119;48.828;12.396;2023-12-20T01:51:06;20.77;;;13.77;;
4210;SDS011;2119;48.828;12.396;2023-12-20T01:56:07;20.90;;;14.67;;
4210;SDS011;2119;48.828;12.396;2023-12-20T02:01:08;19.00;;;13.10;;
4210;SDS011;2119;48.828;12.396;2023-12-20T02:06:09;19.10;;;14.47;;
4210;SDS011;2119;48.828;12.396;2023-12-20T02:11:10;21.57;;;14.73;;
4210;SDS011;2119;48.828;12.396;2023-12-20T02:16:10;19.00;;;14.30;;
4210;SDS011;2119;48.828;12.396;2023-12-20T02:21:10;18.80;;;13.80;;
4210;SDS011;2119;48.828;12.396;2023-12-20T02:26:10;19.50;;;13.18;;
4210;SDS011;2119;48.828;12.396;2023-12-20T02:31:11;23.23;;;14.68;;
4210;SDS011;2119;48.828;12.396;2023-12-20T02:36:11;18.63;;;13.63;;
4210;SDS011;2119;48.828;12.396;2023-12-20T02:41:11;18.43;;;13.97;;
4210;SDS011;2119;48.828;12.396;2023-12-20T02:46:11;19.00;;;13.40;;
4210;SDS011;2119;48.828;12.396;2023-12-20T02:51:12;22.33;;;14.70;;
4210;SDS011;2119;48.828;12.396;2023-12-20T02:56:12;20.27;;;13.07;;
4210;SDS011;2119;48.828;12.396;2023-12-20T03:01:13;18.60;;;14.20;;
4210;SDS011;2119;48.828;12.396;2023-12-20T03:06:17;22.40;;;13.60;;
4210;SDS011;2119;48.828;12.396;2023-12-20T03:11:18;19.90;;;13.80;;
4210;SDS011;2119;48.828;12.396;2023-12-20T03:16:18;20.90;;;14.33;;
4210;SDS011;2119;48.828;12.396;2023-12-20T03:21:19;17.15;;;13.35;;
4210;SDS011;2119;48.828;12.396;2023-12-20T03:26:19;21.50;;;14.00;;
4210;SDS011;2119;48.828;12.396;2023-12-20T03:31:19;22.05;;;14.30;;
4210;SDS011;2119;48.828;12.396;2023-12-20T03:36:20;20.83;;;14.33;;
4210;SDS011;2119;48.828;12.396;2023-12-20T03:41:21;19.75;;;14.27;;
4210;SDS011;2119;48.828;12.396;2023-12-20T03:46:21;21.55;;;14.02;;
4210;SDS011;2119;48.828;12.396;2023-12-20T03:51:21;17.30;;;14.30;;
4210;SDS011;2119;48.828;12.396;2023-12-20T03:56:21;22.77;;;14.27;;
4210;SDS011;2119;48.828;12.396;2023-12-20T04:01:21;18.27;;;13.57;;
4210;SDS011;2119;48.828;12.396;2023-12-20T04:06:22;20.97;;;14.30;;
4210;SDS011;2119;48.828;12.396;2023-12-20T04:11:22;21.17;;;14.85;;
4210;SDS011;2119;48.828;12.396;2023-12-20T04:16:22;19.10;;;13.90;;
4210;SDS011;2119;48.828;12.396;2023-12-20T04:21:22;14.17;;;9.90;;
4210;SDS011;2119;48.828;12.396;2023-12-20T04:26:22;10.67;;;8.57;;
4210;SDS011;2119;48.828;12.396;2023-12-20T04:31:23;16.55;;;9.05;;
4210;SDS011;2119;48.828;12.396;2023-12-20T04:36:25;9.47;;;7.47;;
4210;SDS011;2119;48.828;12.396;2023-12-20T04:41:26;10.90;;;7.60;;
4210;SDS011;2119;48.828;12.396;2023-12-20T04:46:27;10.33;;;7.07;;
4210;SDS011;2119;48.828;12.396;2023-12-20T04:51:27;8.30;;;5.97;;
4210;SDS011;2119;48.828;12.396;2023-12-20T04:56:28;13.38;;;7.38;;
4210;SDS011;2119;48.828;12.396;2023-12-20T05:01:28;7.20;;;6.50;;
4210;SDS011;2119;48.828;12.396;2023-12-20T05:06:28;11.00;;;6.50;;
4210;SDS011;2119;48.828;12.396;2023-12-20T05:11:28;9.47;;;6.17;;
4210;SDS011;2119;48.828;12.396;2023-12-20T05:16:28;10.70;;;8.00;;
4210;SDS011;2119;48.828;12.396;2023-12-20T05:21:28;12.53;;;7.03;;
4210;SDS011;2119;48.828;12.396;2023-12-20T05:26:30;12.63;;;7.60;;
4210;SDS011;2119;48.828;12.396;2023-12-20T05:31:31;6.90;;;6.25;;
4210;SDS011;2119;48.828;12.396;2023-12-20T05:36:31;6.97;;;5.93;;
4210;SDS011;2119;48.828;12.396;2023-12-20T05:41:32;6.15;;;5.35;;
4210;SDS011;2119;48.828;12.396;2023-12-20T05:46:32;5.60;;;5.07;;
4210;SDS011;2119;48.828;12.396;2023-12-20T05:51:32;6.03;;;5.17;;
4210;SDS011;2119;48.828;12.396;2023-12-20T05:56:33;5.37;;;4.93;;
4210;SDS011;2119;48.828;12.396;2023-12-20T06:01:33;6.90;;;6.10;;
4210;SDS011;2119;48.828;12.396;2023-12-20T06:06:33;7.22;;;6.30;;
4210;SDS011;2119;48.828;12.396;2023-12-20T06:11:33;6.65;;;5.30;;
4210;SDS011;2119;48.828;12.396;2023-12-20T06:16:33;6.83;;;5.50;;
4210;SDS011;2119;48.828;12.396;2023-12-20T06:21:34;5.63;;;5.13;;
4210;SDS011;2119;48.828;12.396;2023-12-20T06:26:34;6.20;;;4.73;;
4210;SDS011;2119;48.828;12.396;2023-12-20T06:31:34;5.80;;;5.30;;
4210;SDS011;2119;48.828;12.396;2023-12-20T06:36:34;5.20;;;4.80;;
4210;SDS011;2119;48.828;12.396;2023-12-20T06:41:35;6.63;;;5.07;;
4210;SDS011;2119;48.828;12.396;2023-12-20T06:46:35;8.30;;;6.23;;
4210;SDS011;2119;48.828;12.396;2023-12-20T06:51:35;6.93;;;5.47;;
4210;SDS011;2119;48.828;12.396;2023-12-20T06:56:35;14.13;;;7.55;;
4210;SDS011;2119;48.828;12.396;2023-12-20T07:01:36;22.03;;;13.10;;
4210;SDS011;2119;48.828;12.396;2023-12-20T07:06:36;5.23;;;4.73;;
4210;SDS011;2119;48.828;12.396;2023-12-20T07:11:36;6.03;;;5.37;;
4210;SDS011;2119;48.828;12.396;2023-12-20T07:16:36;5.65;;;5.15;;
4210;SDS011;2119;48.828;12.396;2023-12-20T07:21:36;9.38;;;6.25;;
4210;SDS011;2119;48.828;12.396;2023-12-20T07:26:36;5.80;;;5.30;;
4210;SDS011;2119;48.828;12.396;2023-12-20T07:31:38;10.83;;;7.60;;
4210;SDS011;2119;48.828;12.396;2023-12-20T07:36:38;6.93;;;6.30;;
4210;SDS011;2119;48.828;12.396;2023-12-20T07:41:39;5.68;;;5.15;;
4210;SDS011;2119;48.828;12.396;2023-12-20T07:46:39;7.80;;;7.00;;
4210;SDS011;2119;48.828;12.396;2023-12-20T07:51:39;5.20;;;4.70;;
4210;SDS011;2119;48.828;12.396;2023-12-20T07:56:39;5.13;;;4.73;;
4210;SDS011;2119;48.828;12.396;2023-12-20T08:01:40;4.77;;;4.37;;
4210;SDS011;2119;48.828;12.396;2023-12-20T08:06:40;4.53;;;4.13;;
4210;SDS011;2119;48.828;12.396;2023-12-20T08:11:44;4.80;;;4.40;;
4210;SDS011;2119;48.828;12.396;2023-12-20T08:16:44;4.20;;;3.80;;
4210;SDS011;2119;48.828;12.396;2023-12-20T08:21:44;5.63;;;5.00;;
4210;SDS011;2119;48.828;12.396;2023-12-20T08:26:44;4.23;;;3.90;;
4210;SDS011;2119;48.828;12.396;2023-12-20T08:31:46;2.70;;;2.50;;
4210;SDS011;2119;48.828;12.396;2023-12-20T08:36:46;1.80;;;1.70;;
4210;SDS011;2119;48.828;12.396;2023-12-20T08:41:46;3.27;;;2.23;;
4210;SDS011;2119;48.828;12.396;2023-12-20T08:46:47;2.90;;;2.70;;
4210;SDS011;2119;48.828;12.396;2023-12-20T08:51:47;2.60;;;2.40;;
4210;SDS011;2119;48.828;12.396;2023-12-20T08:56:47;3.37;;;3.07;;
4210;SDS011;2119;48.828;12.396;2023-12-20T09:01:47;5.15;;;4.40;;
4210;SDS011;2119;48.828;12.396;2023-12-20T09:06:48;4.03;;;3.73;;
4210;SDS011;2119;48.828;12.396;2023-12-20T09:11:48;2.78;;;2.58;;
4210;SDS011;2119;48.828;12.396;2023-12-20T09:16:51;3.10;;;2.90;;
4210;SDS011;2119;48.828;12.396;2023-12-20T09:21:51;3.10;;;2.90;;
4210;SDS011;2119;48.828;12.396;2023-12-20T09:26:51;2.47;;;2.27;;
4210;SDS011;2119;48.828;12.396;2023-12-20T09:31:51;2.50;;;2.30;;
4210;SDS011;2119;48.828;12.396;2023-12-20T09:36:52;2.67;;;2.43;;
4210;SDS011;2119;48.828;12.396;2023-12-20T09:42:01;2.90;;;2.70;;
4210;SDS011;2119;48.828;12.396;2023-12-20T09:47:02;6.40;;;3.50;;
4210;SDS011;2119;48.828;12.396;2023-12-20T09:52:03;2.17;;;2.00;;
4210;SDS011;2119;48.828;12.396;2023-12-20T09:57:05;3.30;;;3.10;;
4210;SDS011;2119;48.828;12.396;2023-12-20T10:02:05;3.63;;;3.33;;
4210;SDS011;2119;48.828;12.396;2023-12-20T10:07:09;3.20;;;3.00;;
4210;SDS011;2119;48.828;12.396;2023-12-20T10:12:10;3.50;;;3.27;;
4210;SDS011;2119;48.828;12.396;2023-12-20T10:17:10;3.80;;;3.50;;
4210;SDS011;2119;48.828;12.396;2023-12-20T10:22:10;4.50;;;3.47;;
4210;SDS011;2119;48.828;12.396;2023-12-20T10:27:10;3.40;;;3.20;;
4210;SDS011;2119;48.828;12.396;2023-12-20T10:32:24;4.00;;;3.70;;
4210;SDS011;2119;48.828;12.396;2023-12-20T10:37:24;3.93;;;3.47;;
4210;SDS011;2119;48.828;12.396;2023-12-20T10:42:24;3.85;;;3.55;;
4210;SDS011;2119;48.828;12.396;2023-12-20T10:47:26;3.40;;;3.20;;
4210;SDS011;2119;48.828;12.396;2023-12-20T10:52:29;3.50;;;3.20;;
4210;SDS011;2119;48.828;12.396;2023-12-20T10:57:29;3.00;;;2.80;;
4210;SDS011;2119;48.828;12.396;2023-12-20T11:02:31;3.65;;;3.42;;
4210;SDS011;2119;48.828;12.396;2023-12-20T11:07:33;3.60;;;3.30;;
4210;SDS011;2119;48.828;12.396;2023-12-20T11:12:53;3.93;;;3.63;;
4210;SDS011;2119;48.828;12.396;2023-12-20T11:17:55;4.27;;;3.97;;
4210;SDS011;2119;48.828;12.396;2023-12-20T11:22:56;5.97;;;3.70;;
4210;SDS011;2119;48.828;12.396;2023-12-20T11:28:07;2.73;;;2.53;;
4210;SDS011;2119;48.828;12.396;2023-12-20T11:33:08;3.30;;;3.00;;
4210;SDS011;2119;48.828;12.396;2023-12-20T11:38:09;2.47;;;2.27;;
4210;SDS011;2119;48.828;12.396;2023-12-20T11:43:10;2.80;;;2.60;;
4210;SDS011;2119;48.828;12.396;2023-12-20T11:48:10;2.37;;;2.17;;
4210;SDS011;2119;48.828;12.396;2023-12-20T11:53:10;1.70;;;1.60;;
4210;SDS011;2119;48.828;12.396;2023-12-20T11:58:10;2.07;;;1.70;;
4210;SDS011;2119;48.828;12.396;2023-12-20T12:03:14;2.13;;;1.93;;
4210;SDS011;2119;48.828;12.396;2023-12-20T12:08:14;2.20;;;2.00;;
4210;SDS011;2119;48.828;12.396;2023-12-20T12:13:14;3.45;;;2.00;;
4210;SDS011;2119;48.828;12.396;2023-12-20T12:18:15;3.45;;;3.25;;
4210;SDS011;2119;48.828;12.396;2023-12-20T12:23:22;3.83;;;3.63;;
4210;SDS011;2119;48.828;12.396;2023-12-20T12:28:25;2.40;;;2.20;;
4210;SDS011;2119;48.828;12.396;2023-12-20T12:33:25;6.33;;;3.23;;
4210;SDS011;2119;48.828;12.396;2023-12-20T12:38:26;2.60;;;2.30;;
4210;SDS011;2119;48.828;12.396;2023-12-20T12:43:26;1.80;;;1.70;;
4210;SDS011;2119;48.828;12.396;2023-12-20T12:48:26;2.30;;;2.00;;
4210;SDS011;2119;48.828;12.396;2023-12-20T12:53:28;2.53;;;1.70;;
4210;SDS011;2119;48.828;12.396;2023-12-20T12:58:28;1.60;;;1.50;;
4210;SDS011;2119;48.828;12.396;2023-12-20T13:03:28;1.50;;;1.40;;
4210;SDS011;2119;48.828;12.396;2023-12-20T13:08:28;1.53;;;1.20;;
4210;SDS011;2119;48.828;12.396;2023-12-20T13:13:28;2.20;;;1.17;;
4210;SDS011;2119;48.828;12.396;2023-12-20T13:18:29;3.80;;;1.45;;
4210;SDS011;2119;48.828;12.396;2023-12-20T13:23:29;1.75;;;1.50;;
4210;SDS011;2119;48.828;12.396;2023-12-20T13:28:29;1.10;;;1.00;;
4210;SDS011;2119;48.828;12.396;2023-12-20T13:33:29;1.57;;;1.47;;
4210;SDS011;2119;48.828;12.396;2023-12-20T13:38:29;2.20;;;1.23;;
4210;SDS011;2119;48.828;12.396;2023-12-20T13:43:33;1.60;;;1.40;;
4210;SDS011;2119;48.828;12.396;2023-12-20T13:48:34;6.10;;;1.63;;
4210;SDS011;2119;48.828;12.396;2023-12-20T13:53:34;2.00;;;1.80;;
4210;SDS011;2119;48.828;12.396;2023-12-20T13:58:35;2.05;;;1.55;;
4210;SDS011;2119;48.828;12.396;2023-12-20T14:03:35;2.70;;;1.30;;
4210;SDS011;2119;48.828;12.396;2023-12-20T14:08:35;1.85;;;1.20;;
4210;SDS011;2119;48.828;12.396;2023-12-20T14:13:36;1.87;;;1.47;;
4210;SDS011;2119;48.828;12.396;2023-12-20T14:18:36;1.97;;;1.70;;
4210;SDS011;2119;48.828;12.396;2023-12-20T14:23:36;1.80;;;1.30;;
4210;SDS011;2119;48.828;12.396;2023-12-20T14:28:36;1.50;;;1.30;;
4210;SDS011;2119;48.828;12.396;2023-12-20T14:33:36;4.30;;;1.73;;
4210;SDS011;2119;48.828;12.396;2023-12-20T14:38:41;3.50;;;1.60;;
4210;SDS011;2119;48.828;12.396;2023-12-20T14:43:41;6.37;;;1.90;;
4210;SDS011;2119;48.828;12.396;2023-12-20T14:48:41;2.20;;;1.50;;
4210;SDS011;2119;48.828;12.396;2023-12-20T14:53:41;1.87;;;1.50;;
4210;SDS011;2119;48.828;12.396;2023-12-20T14:58:42;2.60;;;2.33;;
4210;SDS011;2119;48.828;12.396;2023-12-20T15:03:42;4.23;;;2.63;;
4210;SDS011;2119;48.828;12.396;2023-12-20T15:08:42;3.73;;;1.70;;
4210;SDS011;2119;48.828;12.396;2023-12-20T15:13:42;2.57;;;1.80;;
4210;SDS011;2119;48.828;12.396;2023-12-20T15:18:43;3.42;;;1.90;;
4210;SDS011;2119;48.828;12.396;2023-12-20T15:23:43;3.10;;;2.80;;
4210;SDS011;2119;48.828;12.396;2023-12-20T15:28:52;2.37;;;1.60;;
4210;SDS011;2119;48.828;12.396;2023-12-20T15:33:52;2.03;;;1.90;;
4210;SDS011;2119;48.828;12.396;2023-12-20T15:38:53;3.80;;;3.00;;
4210;SDS011;2119;48.828;12.396;2023-12-20T15:43:53;7.40;;;3.40;;
4210;SDS011;2119;48.828;12.396;2023-12-20T15:48:53;3.72;;;3.40;;
4210;SDS011;2119;48.828;12.396;2023-12-20T15:53:53;2.97;;;2.70;;
4210;SDS011;2119;48.828;12.396;2023-12-20T15:58:53;2.90;;;2.60;;
4210;SDS011;2119;48.828;12.396;2023-12-20T16:03:54;4.63;;;3.60;;
4210;SDS011;2119;48.828;12.396;2023-12-20T16:08:54;8.20;;;3.77;;
4210;SDS011;2119;48.828;12.396;2023-12-20T16:13:55;4.03;;;3.30;;
4210;SDS011;2119;48.828;12.396;2023-12-20T16:18:55;9.35;;;7.05;;
4210;SDS011;2119;48.828;12.396;2023-12-20T16:23:55;27.23;;;15.03;;
4210;SDS011;2119;48.828;12.396;2023-12-20T16:28:55;13.30;;;8.07;;
4210;SDS011;2119;48.828;12.396;2023-12-20T16:33:55;25.77;;;10.23;;
4210;SDS011;2119;48.828;12.396;2023-12-20T16:38:55;8.53;;;6.00;;
4210;SDS011;2119;48.828;12.396;2023-12-20T16:43:56;6.40;;;4.60;;
4210;SDS011;2119;48.828;12.396;2023-12-20T16:48:56;5.65;;;3.58;;
4210;SDS011;2119;48.828;12.396;2023-12-20T16:53:56;4.00;;;3.23;;
4210;SDS011;2119;48.828;12.396;2023-12-20T16:58:57;7.00;;;5.20;;
4210;SDS011;2119;48.828;12.396;2023-12-20T17:03:57;9.50;;;7.70;;
4210;SDS011;2119;48.828;12.396;2023-12-20T17:08:57;5.33;;;4.57;;
4210;SDS011;2119;48.828;12.396;2023-12-20T17:13:57;8.52;;;6.28;;
4210;SDS011;2119;48.828;12.396;2023-12-20T17:18:58;8.40;;;4.45;;
4210;SDS011;2119;48.828;12.396;2023-12-20T17:23:58;9.03;;;6.40;;
4210;SDS011;2119;48.828;12.396;2023-12-20T17:28:59;8.30;;;5.00;;
4210;SDS011;2119;48.828;12.396;2023-12-20T17:33:59;5.80;;;3.20;;
4210;SDS011;2119;48.828;12.396;2023-12-20T17:38:59;5.33;;;3.90;;
4210;SDS011;2119;48.828;12.396;2023-12-20T17:43:59;4.93;;;3.50;;
4210;SDS011;2119;48.828;12.396;2023-12-20T17:48:59;4.10;;;3.70;;
4210;SDS011;2119;48.828;12.396;2023-12-20T17:54:01;4.27;;;3.87;;
4210;SDS011;2119;48.828;12.396;2023-12-20T17:59:03;3.50;;;3.20;;
4210;SDS011;2119;48.828;12.396;2023-12-20T18:04:05;5.93;;;2.80;;
4210;SDS011;2119;48.828;12.396;2023-12-20T18:09:05;3.37;;;2.90;;
4210;SDS011;2119;48.828;12.396;2023-12-20T18:14:05;7.57;;;3.35;;
4210;SDS011;2119;48.828;12.396;2023-12-20T18:19:05;4.73;;;2.30;;
4210;SDS011;2119;48.828;12.396;2023-12-20T18:24:06;6.45;;;2.80;;
4210;SDS011;2119;48.828;12.396;2023-12-20T18:29:07;3.07;;;2.70;;
4210;SDS011;2119;48.828;12.396;2023-12-20T18:34:07;5.00;;;3.00;;
4210;SDS011;2119;48.828;12.396;2023-12-20T18:39:07;3.63;;;2.60;;
4210;SDS011;2119;48.828;12.396;2023-12-20T18:44:08;4.37;;;2.60;;
4210;SDS011;2119;48.828;12.396;2023-12-20T18:49:08;4.73;;;2.53;;
4210;SDS011;2119;48.828;12.396;2023-12-20T18:54:08;3.00;;;2.60;;
4210;SDS011;2119;48.828;12.396;2023-12-20T18:59:09;3.13;;;2.40;;
4210;SDS011;2119;48.828;12.396;2023-12-20T19:04:09;4.70;;;2.75;;
4210;SDS011;2119;48.828;12.396;2023-12-20T19:09:09;7.70;;;3.90;;
4210;SDS011;2119;48.828;12.396;2023-12-20T19:14:09;6.40;;;3.83;;
4210;SDS011;2119;48.828;12.396;2023-12-20T19:19:13;5.50;;;3.40;;
4210;SDS011;2119;48.828;12.396;2023-12-20T19:24:13;5.67;;;3.83;;
4210;SDS011;2119;48.828;12.396;2023-12-20T19:29:13;6.10;;;3.17;;
4210;SDS011;2119;48.828;12.396;2023-12-20T19:34:13;6.87;;;3.40;;
4210;SDS011;2119;48.828;12.396;2023-12-20T19:39:13;3.63;;;2.75;;
4210;SDS011;2119;48.828;12.396;2023-12-20T19:44:14;4.07;;;2.70;;
4210;SDS011;2119;48.828;12.396;2023-12-20T19:49:16;4.10;;;3.23;;
4210;SDS011;2119;48.828;12.396;2023-12-20T19:54:17;3.05;;;2.75;;
4210;SDS011;2119;48.828;12.396;2023-12-20T19:59:17;5.22;;;4.50;;
4210;SDS011;2119;48.828;12.396;2023-12-20T20:04:17;2.83;;;2.57;;
4210;SDS011;2119;48.828;12.396;2023-12-20T20:09:18;6.90;;;4.50;;
4210;SDS011;2119;48.828;12.396;2023-12-20T20:14:18;2.87;;;2.13;;
4210;SDS011;2119;48.828;12.396;2023-12-20T20:19:18;5.87;;;2.87;;
4210;SDS011;2119;48.828;12.396;2023-12-20T20:24:19;4.60;;;2.90;;
4210;SDS011;2119;48.828;12.396;2023-12-20T20:29:19;3.53;;;2.40;;
4210;SDS011;2119;48.828;12.396;2023-12-20T20:34:19;2.10;;;1.90;;
4210;SDS011;2119;48.828;12.396;2023-12-20T20:39:20;2.20;;;1.60;;
4210;SDS011;2119;48.828;12.396;2023-12-20T20:44:21;2.97;;;1.70;;
4210;SDS011;2119;48.828;12.396;2023-12-20T20:49:21;2.00;;;1.60;;
4210;SDS011;2119;48.828;12.396;2023-12-20T20:54:24;3.63;;;1.90;;
4210;SDS011;2119;48.828;12.396;2023-12-20T20:59:24;2.70;;;2.10;;
4210;SDS011;2119;48.828;12.396;2023-12-20T21:04:24;4.23;;;2.77;;
4210;SDS011;2119;48.828;12.396;2023-12-20T21:09:24;2.42;;;1.65;;
4210;SDS011;2119;48.828;12.396;2023-12-20T21:14:25;9.33;;;1.90;;
4210;SDS011;2119;48.828;12.396;2023-12-20T21:19:26;3.20;;;1.87;;
4210;SDS011;2119;48.828;12.396;2023-12-20T21:24:26;5.00;;;2.93;;
4210;SDS011;2119;48.828;12.396;2023-12-20T21:29:26;2.30;;;1.92;;
4210;SDS011;2119;48.828;12.396;2023-12-20T21:34:27;3.17;;;1.70;;
4210;SDS011;2119;48.828;12.396;2023-12-20T21:39:27;2.93;;;1.80;;
4210;SDS011;2119;48.828;12.396;2023-12-20T21:44:29;3.70;;;1.90;;
4210;SDS011;2119;48.828;12.396;2023-12-20T21:49:29;3.00;;;1.70;;
4210;SDS011;2119;48.828;12.396;2023-12-20T21:54:29;4.40;;;2.08;;
4210;SDS011;2119;48.828;12.396;2023-12-20T21:59:29;5.33;;;1.97;;
4210;SDS011;2119;48.828;12.396;2023-12-20T22:04:30;5.68;;;1.85;;
4210;SDS011;2119;48.828;12.396;2023-12-20T22:09:30;4.07;;;1.70;;
4210;SDS011;2119;48.828;12.396;2023-12-20T22:14:30;4.80;;;1.93;;
4210;SDS011;2119;48.828;12.396;2023-12-20T22:19:32;2.70;;;2.10;;
4210;SDS011;2119;48.828;12.396;2023-12-20T22:24:32;2.90;;;1.63;;
4210;SDS011;2119;48.828;12.396;2023-12-20T22:29:32;4.25;;;2.00;;
4210;SDS011;2119;48.828;12.396;2023-12-20T22:34:32;2.30;;;1.48;;
4210;SDS011;2119;48.828;12.396;2023-12-20T22:39:33;3.25;;;1.73;;
4210;SDS011;2119;48.828;12.396;2023-12-20T22:44:35;1.80;;;1.50;;
4210;SDS011;2119;48.828;12.396;2023-12-20T22:49:36;1.80;;;1.60;;
4210;SDS011;2119;48.828;12.396;2023-12-20T22:54:37;2.90;;;2.05;;
4210;SDS011;2119;48.828;12.396;2023-12-20T22:59:37;6.47;;;2.30;;
4210;SDS011;2119;48.828;12.396;2023-12-20T23:04:40;3.17;;;1.70;;
4210;SDS011;2119;48.828;12.396;2023-12-20T23:09:41;2.43;;;1.70;;
4210;SDS011;2119;48.828;12.396;2023-12-20T23:14:42;2.65;;;1.80;;
4210;SDS011;2119;48.828;12.396;2023-12-20T23:19:42;1.90;;;1.50;;
4210;SDS011;2119;48.828;12.396;2023-12-20T23:24:42;2.92;;;1.67;;
4210;SDS011;2119;48.828;12.396;2023-12-20T23:29:43;2.73;;;1.80;;
4210;SDS011;2119;48.828;12.396;2023-12-20T23:34:43;5.40;;;2.30;;
4210;SDS011;2119;48.828;12.396;2023-12-20T23:39:43;7.30;;;1.83;;
4210;SDS011;2119;48.828;12.396;2023-12-20T23:44:45;3.50;;;1.70;;
4210;SDS011;2119;48.828;12.396;2023-12-20T23:49:45;2.87;;;1.90;;
4210;SDS011;2119;48.828;12.396;2023-12-20T23:54:45;4.50;;;1.40;;
4210;SDS011;2119;48.828;12.396;2023-12-20T23:59:45;2.03;;;1.60;;
